createdAt,value
2023-09-29T00:01:35.109Z,20.76
2023-09-29T00:04:06.363Z,20.59
2023-09-29T00:06:36.164Z,20.72
2023-09-29T00:09:02.933Z,20.89
2023-09-29T00:11:32.476Z,20.75
2023-09-29T00:13:59.512Z,20.46
2023-09-29T00:16:26.250Z,20.64
2023-09-29T00:18:53.008Z,20.26
2023-09-29T00:21:20.180Z,20.41
2023-09-29T00:23:46.808Z,20.74
2023-09-29T00:26:13.677Z,20.42
2023-09-29T00:28:40.302Z,19.85
2023-09-29T00:31:07.617Z,20.42
2023-09-29T00:33:34.821Z,20.30
2023-09-29T00:36:01.468Z,20.40
2023-09-29T00:38:28.311Z,20.57
2023-09-29T00:40:54.981Z,20.35
2023-09-29T00:43:22.708Z,20.77
2023-09-29T00:45:50.392Z,20.48
2023-09-29T00:48:17.061Z,20.57
2023-09-29T00:50:43.812Z,20.56
2023-09-29T00:53:13.142Z,20.54
2023-09-29T00:55:43.288Z,20.41
2023-09-29T00:58:09.969Z,20.48
2023-09-29T01:00:41.821Z,20.37
2023-09-29T01:03:12.606Z,20.65
2023-09-29T01:05:40.729Z,20.45
2023-09-29T01:08:10.414Z,20.37
2023-09-29T01:10:37.993Z,20.45
2023-09-29T01:13:04.808Z,20.51
2023-09-29T01:15:34.152Z,20.65
2023-09-29T01:18:00.869Z,20.63
2023-09-29T01:20:31.781Z,20.42
2023-09-29T01:22:59.195Z,20.67
2023-09-29T01:25:25.834Z,20.15
2023-09-29T01:27:54.426Z,20.62
2023-09-29T01:30:21.353Z,20.55
2023-09-29T01:32:48.952Z,20.46
2023-09-29T01:35:25.629Z,20.71
2023-09-29T01:37:52.768Z,20.87
2023-09-29T01:40:22.238Z,20.64
2023-09-29T01:42:49.028Z,20.70
2023-09-29T01:45:16.872Z,20.83
2023-09-29T01:47:47.970Z,20.58
2023-09-29T01:50:17.890Z,20.21
2023-09-29T01:52:47.997Z,20.10
2023-09-29T01:55:21.516Z,20.35
2023-09-29T01:57:51.285Z,20.18
2023-09-29T02:00:21.087Z,20.35
2023-09-29T02:02:48.261Z,20.46
2023-09-29T02:05:17.736Z,20.48
2023-09-29T02:07:44.738Z,20.69
2023-09-29T02:10:11.388Z,20.31
2023-09-29T02:12:43.304Z,20.29
2023-09-29T02:15:10.113Z,20.29
2023-09-29T02:17:38.206Z,20.43
2023-09-29T02:20:13.286Z,20.53
2023-09-29T02:22:40.923Z,20.61
2023-09-29T02:25:08.179Z,20.30
2023-09-29T02:27:34.823Z,20.63
2023-09-29T02:30:01.458Z,20.65
2023-09-29T02:32:28.087Z,20.59
2023-09-29T02:34:56.580Z,20.58
2023-09-29T02:37:23.131Z,20.37
2023-09-29T02:39:49.817Z,20.52
2023-09-29T02:42:16.431Z,20.70
2023-09-29T02:44:43.156Z,20.45
2023-09-29T02:47:09.717Z,20.55
2023-09-29T02:49:36.286Z,20.72
2023-09-29T02:52:05.908Z,20.50
2023-09-29T02:54:32.513Z,20.63
2023-09-29T02:56:59.336Z,20.72
2023-09-29T02:59:26.282Z,20.82
2023-09-29T03:01:52.879Z,20.72
2023-09-29T03:04:19.515Z,20.72
2023-09-29T03:06:46.141Z,20.63
2023-09-29T03:09:14.928Z,20.43
2023-09-29T03:11:41.724Z,20.67
2023-09-29T03:14:08.435Z,20.44
2023-09-29T03:16:36.818Z,20.50
2023-09-29T03:19:03.803Z,20.75
2023-09-29T03:21:30.464Z,20.78
2023-09-29T03:23:57.864Z,20.79
2023-09-29T03:26:24.619Z,20.75
2023-09-29T03:28:51.244Z,20.79
2023-09-29T03:31:19.463Z,20.77
2023-09-29T03:33:46.179Z,20.68
2023-09-29T03:36:12.942Z,20.63
2023-09-29T03:38:39.572Z,20.46
2023-09-29T03:41:08.759Z,20.63
2023-09-29T03:43:35.400Z,20.54
2023-09-29T03:46:02.104Z,20.62
2023-09-29T03:48:29.879Z,20.65
2023-09-29T03:50:56.638Z,20.57
2023-09-29T03:53:23.341Z,20.74
2023-09-29T03:55:49.994Z,20.57
2023-09-29T03:58:16.752Z,20.70
2023-09-29T04:00:43.456Z,20.57
2023-09-29T04:03:10.213Z,20.57
2023-09-29T04:05:36.876Z,20.56
2023-09-29T04:08:04.590Z,20.78
2023-09-29T04:10:31.290Z,20.82
2023-09-29T04:12:57.879Z,20.84
2023-09-29T04:15:25.359Z,20.70
2023-09-29T04:17:52.041Z,20.80
2023-09-29T04:20:19.263Z,20.42
2023-09-29T04:22:46.674Z,20.36
2023-09-29T04:25:13.332Z,20.65
2023-09-29T04:27:40.274Z,20.48
2023-09-29T04:30:07.785Z,20.78
2023-09-29T04:32:34.502Z,20.54
2023-09-29T04:35:01.058Z,20.37
2023-09-29T04:37:27.908Z,20.65
2023-09-29T04:39:57.204Z,20.46
2023-09-29T04:42:23.843Z,20.48
2023-09-29T04:44:50.523Z,20.53
2023-09-29T04:47:17.149Z,20.61
2023-09-29T04:49:43.798Z,20.71
2023-09-29T04:52:10.450Z,20.70
2023-09-29T04:54:37.172Z,20.73
2023-09-29T04:57:03.832Z,20.71
2023-09-29T04:59:31.072Z,20.58
2023-09-29T05:01:58.246Z,20.72
2023-09-29T05:04:25.002Z,20.45
2023-09-29T05:06:53.194Z,20.44
2023-09-29T05:09:20.281Z,20.38
2023-09-29T05:11:46.922Z,20.15
2023-09-29T05:14:13.564Z,20.42
2023-09-29T05:16:40.177Z,20.59
2023-09-29T05:19:07.313Z,20.44
2023-09-29T05:21:34.088Z,20.71
2023-09-29T05:24:00.729Z,20.41
2023-09-29T05:26:28.634Z,20.46
2023-09-29T05:28:56.558Z,20.59
2023-09-29T05:31:23.423Z,20.52
2023-09-29T05:33:50.231Z,20.35
2023-09-29T05:36:17.153Z,20.37
2023-09-29T05:38:43.799Z,20.19
2023-09-29T05:41:10.463Z,20.39
2023-09-29T05:43:37.209Z,20.62
2023-09-29T05:46:03.930Z,20.37
2023-09-29T05:48:30.785Z,20.40
2023-09-29T05:50:57.385Z,20.56
2023-09-29T05:53:24.074Z,20.71
2023-09-29T05:55:50.714Z,20.65
2023-09-29T05:58:17.401Z,20.26
2023-09-29T06:00:43.995Z,20.47
2023-09-29T06:03:10.663Z,20.52
2023-09-29T06:05:37.465Z,20.40
2023-09-29T06:08:04.553Z,20.65
2023-09-29T06:10:31.222Z,20.22
2023-09-29T06:12:57.890Z,20.21
2023-09-29T06:15:24.584Z,20.26
2023-09-29T06:17:51.444Z,20.30
2023-09-29T06:20:20.234Z,20.29
2023-09-29T06:22:47.293Z,20.25
2023-09-29T06:25:13.992Z,20.16
2023-09-29T06:27:40.624Z,20.53
2023-09-29T06:30:07.771Z,20.52
2023-09-29T06:32:34.644Z,20.37
2023-09-29T06:35:01.407Z,20.28
2023-09-29T06:37:28.005Z,20.53
2023-09-29T06:39:54.561Z,20.57
2023-09-29T06:42:21.395Z,20.46
2023-09-29T06:44:48.088Z,20.37
2023-09-29T06:47:14.972Z,20.74
2023-09-29T06:49:41.796Z,20.59
2023-09-29T06:52:08.488Z,20.74
2023-09-29T06:54:35.217Z,20.73
2023-09-29T06:57:01.978Z,20.56
2023-09-29T06:59:28.788Z,20.33
2023-09-29T07:01:56.457Z,20.31
2023-09-29T07:04:23.313Z,20.24
2023-09-29T07:06:50.101Z,20.59
2023-09-29T07:09:16.723Z,20.57
2023-09-29T07:11:43.585Z,20.43
2023-09-29T07:14:10.204Z,20.61
2023-09-29T07:16:36.945Z,20.72
2023-09-29T07:19:04.808Z,20.77
2023-09-29T07:21:31.802Z,20.76
2023-09-29T07:23:58.766Z,20.61
2023-09-29T07:26:25.615Z,20.44
2023-09-29T07:28:52.773Z,20.69
2023-09-29T07:31:19.483Z,20.71
2023-09-29T07:33:46.229Z,20.65
2023-09-29T07:36:12.852Z,20.71
2023-09-29T07:38:39.626Z,20.84
2023-09-29T07:41:06.527Z,20.73
2023-09-29T07:43:35.393Z,20.69
2023-09-29T07:46:02.051Z,20.62
2023-09-29T07:48:29.495Z,20.62
2023-09-29T07:50:56.353Z,20.51
2023-09-29T07:53:23.018Z,20.56
2023-09-29T07:55:49.612Z,20.45
2023-09-29T07:58:16.152Z,20.68
2023-09-29T08:00:44.077Z,20.65
2023-09-29T08:03:10.899Z,20.71
2023-09-29T08:05:37.741Z,20.60
2023-09-29T08:08:04.561Z,20.56
2023-09-29T08:10:31.330Z,20.38
2023-09-29T08:12:57.938Z,20.37
2023-09-29T08:15:25.906Z,20.30
2023-09-29T08:17:52.709Z,20.22
2023-09-29T08:20:19.908Z,20.30
2023-09-29T08:22:48.894Z,20.00
2023-09-29T08:25:17.069Z,20.01
2023-09-29T08:27:43.820Z,20.09
2023-09-29T08:30:11.684Z,20.20
2023-09-29T08:32:40.074Z,20.14
2023-09-29T08:35:07.075Z,20.19
2023-09-29T08:37:33.852Z,20.05
2023-09-29T08:40:00.581Z,20.26
2023-09-29T08:42:39.998Z,20.41
2023-09-29T08:45:13.324Z,20.28
2023-09-29T08:47:41.598Z,20.39
2023-09-29T08:50:10.349Z,20.40
2023-09-29T08:52:37.227Z,20.25
2023-09-29T08:55:04.015Z,20.06
2023-09-29T08:57:30.713Z,20.19
2023-09-29T08:59:57.375Z,20.11
2023-09-29T09:02:27.668Z,20.33
2023-09-29T09:04:54.473Z,20.58
2023-09-29T09:07:24.756Z,20.49
2023-09-29T09:09:51.763Z,20.57
2023-09-29T09:12:18.505Z,20.62
2023-09-29T09:14:46.423Z,20.51
2023-09-29T09:17:13.246Z,20.37
2023-09-29T09:19:44.563Z,20.20
2023-09-29T09:22:15.870Z,20.22
2023-09-29T09:24:42.512Z,19.93
2023-09-29T09:27:09.545Z,20.43
2023-09-29T09:29:42.924Z,20.33
2023-09-29T09:32:11.994Z,20.46
2023-09-29T09:34:39.033Z,20.36
2023-09-29T09:37:09.902Z,20.40
2023-09-29T09:39:36.749Z,20.33
2023-09-29T09:42:07.359Z,20.22
2023-09-29T09:44:35.550Z,20.19
2023-09-29T09:47:02.265Z,20.19
2023-09-29T09:49:37.485Z,20.14
2023-09-29T09:52:06.541Z,20.49
2023-09-29T09:54:33.537Z,20.44
2023-09-29T09:57:08.167Z,20.45
2023-09-29T09:59:35.180Z,20.49
2023-09-29T10:02:01.811Z,20.47
2023-09-29T10:04:29.713Z,20.40
2023-09-29T10:06:57.539Z,20.35
2023-09-29T10:09:24.249Z,20.31
2023-09-29T10:12:00.320Z,20.20
2023-09-29T10:14:27.013Z,20.67
2023-09-29T10:17:03.832Z,20.59
2023-09-29T10:19:38.917Z,20.62
2023-09-29T10:22:06.014Z,20.57
2023-09-29T10:24:32.610Z,20.61
2023-09-29T10:27:06.841Z,20.60
2023-09-29T10:29:39.710Z,20.57
2023-09-29T10:32:10.270Z,20.48
2023-09-29T10:34:36.877Z,20.70
2023-09-29T10:37:04.002Z,20.77
2023-09-29T10:39:30.652Z,20.65
2023-09-29T10:41:58.089Z,20.75
2023-09-29T10:44:28.133Z,20.72
2023-09-29T10:46:54.922Z,20.70
2023-09-29T10:49:21.989Z,20.63
2023-09-29T10:51:48.771Z,20.65
2023-09-29T10:54:15.442Z,20.62
2023-09-29T10:56:48.670Z,20.81
2023-09-29T10:59:15.272Z,20.76
2023-09-29T11:01:42.188Z,20.68
2023-09-29T11:04:10.399Z,20.76
2023-09-29T11:06:47.323Z,20.82
2023-09-29T11:09:17.901Z,20.82
2023-09-29T11:11:44.711Z,20.66
2023-09-29T11:14:11.428Z,20.51
2023-09-29T11:16:38.303Z,20.89
2023-09-29T11:19:16.947Z,20.77
2023-09-29T11:21:43.674Z,20.82
2023-09-29T11:24:14.969Z,20.75
2023-09-29T11:26:42.353Z,20.75
2023-09-29T11:29:11.713Z,20.49
2023-09-29T11:31:38.790Z,20.40
2023-09-29T11:34:08.057Z,20.38
2023-09-29T11:36:34.915Z,20.25
2023-09-29T11:39:02.086Z,20.65
2023-09-29T11:41:30.951Z,20.65
2023-09-29T11:43:57.660Z,20.55
2023-09-29T11:46:24.732Z,20.65
2023-09-29T11:48:51.413Z,20.65
2023-09-29T11:51:19.099Z,20.69
2023-09-29T11:53:45.983Z,20.71
2023-09-29T11:56:12.659Z,20.53
2023-09-29T11:58:39.305Z,20.39
2023-09-29T12:01:07.628Z,20.65
2023-09-29T12:03:36.177Z,20.85
2023-09-29T12:06:03.778Z,20.77
2023-09-29T12:08:30.856Z,20.93
2023-09-29T12:10:57.643Z,20.92
2023-09-29T12:13:24.590Z,20.83
2023-09-29T12:15:51.316Z,20.74
2023-09-29T12:18:18.060Z,20.63
2023-09-29T12:20:44.747Z,20.59
2023-09-29T12:23:11.440Z,20.86
2023-09-29T12:25:38.181Z,20.72
2023-09-29T12:28:05.059Z,20.73
2023-09-29T12:30:31.763Z,20.73
2023-09-29T12:32:58.693Z,20.55
2023-09-29T12:35:25.382Z,20.53
2023-09-29T12:37:52.269Z,20.46
2023-09-29T12:40:18.803Z,20.41
2023-09-29T12:42:49.197Z,20.82
2023-09-29T12:45:16.226Z,20.70
2023-09-29T12:47:43.117Z,20.67
2023-09-29T12:50:09.980Z,20.61
2023-09-29T12:52:36.531Z,20.66
2023-09-29T12:55:03.674Z,20.56
2023-09-29T12:57:30.476Z,20.61
2023-09-29T12:59:58.020Z,20.75
2023-09-29T13:02:26.404Z,20.92
2023-09-29T13:04:53.076Z,20.86
2023-09-29T13:07:20.608Z,20.74
2023-09-29T13:09:47.500Z,20.71
2023-09-29T13:12:30.354Z,20.79
2023-09-29T13:14:58.670Z,20.76
2023-09-29T13:17:25.434Z,20.55
2023-09-29T13:19:52.117Z,20.92
2023-09-29T13:22:18.657Z,21.00
2023-09-29T13:24:45.266Z,20.94
2023-09-29T13:27:12.070Z,21.02
2023-09-29T13:29:40.069Z,21.05
2023-09-29T13:32:07.484Z,20.84
2023-09-29T13:34:34.125Z,20.82
2023-09-29T13:37:01.218Z,20.85
2023-09-29T13:39:29.122Z,20.73
2023-09-29T13:41:55.980Z,20.67
2023-09-29T13:44:22.685Z,20.94
2023-09-29T13:47:03.331Z,20.90
2023-09-29T13:49:30.842Z,20.87
2023-09-29T13:51:57.439Z,20.90
2023-09-29T13:54:24.120Z,20.94
2023-09-29T13:56:50.817Z,20.85
2023-09-29T13:59:17.444Z,20.76
2023-09-29T14:01:44.134Z,20.65
2023-09-29T14:04:10.951Z,20.79
2023-09-29T14:06:37.669Z,20.95
2023-09-29T14:09:16.359Z,20.89
2023-09-29T14:11:44.448Z,21.00
2023-09-29T14:14:11.125Z,20.95
2023-09-29T14:16:37.801Z,20.91
2023-09-29T14:19:04.626Z,20.89
2023-09-29T14:21:31.308Z,20.84
2023-09-29T14:23:58.086Z,20.70
2023-09-29T14:26:24.968Z,20.91
2023-09-29T14:28:51.606Z,20.62
2023-09-29T14:31:18.527Z,20.74
2023-09-29T14:33:45.270Z,20.77
2023-09-29T14:36:12.170Z,20.81
2023-09-29T14:38:40.982Z,20.82
2023-09-29T14:41:09.214Z,20.68
2023-09-29T14:43:37.048Z,20.72
2023-09-29T14:46:04.239Z,20.45
2023-09-29T14:48:30.975Z,20.66
2023-09-29T14:50:57.861Z,20.50
2023-09-29T14:53:24.496Z,20.45
2023-09-29T14:55:51.159Z,20.75
2023-09-29T14:58:17.855Z,20.66
2023-09-29T15:00:44.560Z,20.73
2023-09-29T15:03:12.729Z,20.63
2023-09-29T15:05:41.290Z,20.51
2023-09-29T15:08:08.258Z,20.82
2023-09-29T15:10:34.940Z,20.67
2023-09-29T15:13:01.658Z,20.58
2023-09-29T15:15:29.375Z,20.66
2023-09-29T15:17:56.501Z,20.65
2023-09-29T15:20:23.518Z,20.79
2023-09-29T15:22:50.851Z,20.75
2023-09-29T15:25:17.512Z,20.75
2023-09-29T15:27:44.209Z,20.67
2023-09-29T15:30:14.651Z,20.45
2023-09-29T15:32:42.586Z,20.33
2023-09-29T15:35:12.910Z,20.45
2023-09-29T15:37:39.692Z,20.63
2023-09-29T15:40:07.152Z,20.77
2023-09-29T15:42:34.853Z,20.83
2023-09-29T15:45:02.198Z,20.66
2023-09-29T15:47:28.897Z,20.58
2023-09-29T15:49:56.063Z,20.75
2023-09-29T15:52:22.883Z,20.12
2023-09-29T15:54:49.461Z,20.25
2023-09-29T15:57:16.084Z,20.44
2023-09-29T15:59:42.677Z,20.51
2023-09-29T16:02:25.298Z,20.27
2023-09-29T16:04:53.745Z,19.58
2023-09-29T16:07:20.407Z,19.21
2023-09-29T16:09:47.057Z,20.22
2023-09-29T16:12:15.628Z,20.76
2023-09-29T16:14:42.534Z,20.44
2023-09-29T16:17:09.391Z,20.43
2023-09-29T16:19:36.587Z,20.47
2023-09-29T16:22:03.476Z,20.54
2023-09-29T16:24:32.198Z,20.54
2023-09-29T16:26:58.841Z,20.57
2023-09-29T16:29:26.034Z,20.33
2023-09-29T16:31:52.654Z,20.30
2023-09-29T16:34:19.426Z,20.71
2023-09-29T16:36:46.075Z,20.63
2023-09-29T16:39:15.456Z,20.58
2023-09-29T16:41:42.711Z,20.61
2023-09-29T16:44:10.914Z,20.60
2023-09-29T16:46:37.820Z,20.51
2023-09-29T16:49:04.449Z,20.45
2023-09-29T16:51:33.291Z,20.27
2023-09-29T16:54:02.371Z,20.35
2023-09-29T16:56:30.011Z,20.54
2023-09-29T16:58:59.810Z,20.51
2023-09-29T17:01:26.702Z,20.59
2023-09-29T17:03:53.600Z,20.71
2023-09-29T17:06:23.562Z,20.67
2023-09-29T17:08:50.399Z,20.69
2023-09-29T17:11:18.420Z,20.38
2023-09-29T17:13:46.322Z,20.51
2023-09-29T17:16:13.269Z,20.20
2023-09-29T17:18:40.345Z,20.59
2023-09-29T17:21:07.701Z,20.65
2023-09-29T17:23:36.490Z,20.53
2023-09-29T17:26:03.779Z,20.66
2023-09-29T17:28:30.314Z,20.48
2023-09-29T17:30:57.645Z,20.52
2023-09-29T17:33:25.141Z,20.32
2023-09-29T17:35:52.011Z,20.36
2023-09-29T17:38:18.648Z,20.30
2023-09-29T17:40:45.954Z,20.73
2023-09-29T17:43:12.554Z,20.46
2023-09-29T17:45:40.885Z,20.46
2023-09-29T17:48:15.825Z,20.56
2023-09-29T17:50:50.133Z,20.49
2023-09-29T17:53:17.000Z,20.49
2023-09-29T17:55:43.663Z,20.74
2023-09-29T17:58:10.290Z,20.66
2023-09-29T18:00:39.117Z,20.58
2023-09-29T18:03:05.912Z,20.40
2023-09-29T18:05:32.526Z,20.71
2023-09-29T18:07:59.106Z,20.70
2023-09-29T18:10:25.685Z,20.53
2023-09-29T18:12:52.440Z,20.55
2023-09-29T18:15:19.071Z,20.43
2023-09-29T18:17:45.752Z,20.24
2023-09-29T18:20:13.259Z,20.52
2023-09-29T18:22:41.183Z,20.25
2023-09-29T18:25:08.420Z,20.55
2023-09-29T18:27:35.180Z,20.79
2023-09-29T18:30:03.179Z,20.48
2023-09-29T18:32:29.838Z,20.52
2023-09-29T18:34:56.485Z,20.41
2023-09-29T18:37:25.710Z,20.57
2023-09-29T18:39:53.225Z,20.54
2023-09-29T18:42:19.901Z,20.61
2023-09-29T18:44:46.470Z,20.41
2023-09-29T18:47:13.145Z,20.20
2023-09-29T18:49:39.735Z,20.58
2023-09-29T18:52:10.920Z,20.39
2023-09-29T18:54:40.349Z,20.51
2023-09-29T18:57:07.095Z,20.41
2023-09-29T18:59:33.896Z,20.59
2023-09-29T19:02:02.289Z,20.55
2023-09-29T19:04:29.245Z,20.52
2023-09-29T19:06:55.945Z,20.46
2023-09-29T19:09:23.776Z,20.23
2023-09-29T19:11:50.586Z,20.17
2023-09-29T19:14:17.183Z,20.44
2023-09-29T19:16:43.856Z,20.68
2023-09-29T19:19:11.646Z,20.40
2023-09-29T19:21:38.565Z,20.42
2023-09-29T19:24:05.434Z,20.53
2023-09-29T19:26:32.025Z,20.50
2023-09-29T19:28:58.918Z,20.55
2023-09-29T19:31:30.270Z,20.68
2023-09-29T19:33:57.291Z,20.53
2023-09-29T19:36:25.736Z,20.41
2023-09-29T19:38:52.421Z,20.41
2023-09-29T19:41:18.999Z,20.63
2023-09-29T19:43:45.997Z,20.28
2023-09-29T19:46:12.836Z,20.38
2023-09-29T19:48:39.513Z,20.49
2023-09-29T19:51:06.810Z,20.45
2023-09-29T19:53:33.618Z,20.54
2023-09-29T19:56:00.356Z,20.44
2023-09-29T19:58:27.285Z,20.38
2023-09-29T20:00:53.957Z,20.23
2023-09-29T20:03:20.877Z,20.66
2023-09-29T20:05:51.209Z,20.42
2023-09-29T20:08:17.883Z,20.49
2023-09-29T20:10:44.684Z,20.40
2023-09-29T20:13:11.691Z,20.38
2023-09-29T20:15:38.572Z,20.25
2023-09-29T20:18:05.897Z,20.29
2023-09-29T20:20:32.650Z,20.43
2023-09-29T20:23:01.813Z,20.58
2023-09-29T20:25:28.516Z,20.81
2023-09-29T20:27:55.242Z,20.50
2023-09-29T20:30:22.483Z,20.44
2023-09-29T20:32:49.345Z,20.59
2023-09-29T20:35:18.059Z,20.52
2023-09-29T20:37:47.711Z,20.46
2023-09-29T20:40:14.444Z,20.44
2023-09-29T20:42:41.429Z,20.24
2023-09-29T20:45:08.447Z,20.31
2023-09-29T20:47:35.167Z,20.62
2023-09-29T20:50:01.949Z,20.37
2023-09-29T20:52:28.724Z,20.31
2023-09-29T20:54:55.257Z,20.57
2023-09-29T20:57:21.849Z,20.61
2023-09-29T20:59:48.622Z,20.60
2023-09-29T21:02:15.381Z,20.42
2023-09-29T21:04:42.275Z,20.25
2023-09-29T21:07:09.193Z,20.02
2023-09-29T21:09:35.948Z,20.02
2023-09-29T21:12:03.533Z,20.52
2023-09-29T21:14:31.005Z,20.46
2023-09-29T21:16:59.404Z,20.42
2023-09-29T21:19:25.979Z,20.46
2023-09-29T21:21:52.475Z,20.52
2023-09-29T21:24:19.157Z,20.55
2023-09-29T21:26:45.806Z,20.57
2023-09-29T21:29:12.323Z,20.54
2023-09-29T21:31:43.813Z,20.48
2023-09-29T21:34:10.433Z,20.23
2023-09-29T21:36:37.094Z,20.35
2023-09-29T21:39:04.153Z,20.52
2023-09-29T21:41:30.859Z,20.54
2023-09-29T21:43:57.765Z,20.60
2023-09-29T21:46:25.648Z,20.41
2023-09-29T21:48:54.198Z,20.46
2023-09-29T21:51:20.861Z,20.57
2023-09-29T21:53:47.509Z,20.40
2023-09-29T21:56:14.175Z,20.67
2023-09-29T21:58:40.777Z,20.45
2023-09-29T22:01:07.509Z,20.44
2023-09-29T22:03:35.229Z,20.44
2023-09-29T22:06:02.145Z,20.50
2023-09-29T22:08:28.844Z,20.29
2023-09-29T22:10:55.500Z,20.42
2023-09-29T22:13:22.163Z,20.38
2023-09-29T22:15:51.857Z,20.23
2023-09-29T22:18:18.752Z,20.11
2023-09-29T22:20:46.531Z,20.46
2023-09-29T22:23:18.237Z,20.21
2023-09-29T22:25:45.110Z,20.29
2023-09-29T22:28:11.767Z,20.17
2023-09-29T22:30:38.417Z,20.14
2023-09-29T22:33:05.359Z,20.19
2023-09-29T22:35:32.167Z,20.06
2023-09-29T22:37:58.796Z,20.07
2023-09-29T22:40:25.383Z,19.86
2023-09-29T22:42:52.452Z,20.32
2023-09-29T22:45:19.135Z,20.05
2023-09-29T22:47:46.250Z,20.22
2023-09-29T22:50:12.869Z,20.07
2023-09-29T22:52:39.938Z,20.15
2023-09-29T22:55:06.955Z,20.08
2023-09-29T22:57:33.851Z,20.15
2023-09-29T23:00:01.174Z,19.85
2023-09-29T23:02:28.293Z,20.16
2023-09-29T23:04:54.977Z,19.98
2023-09-29T23:07:21.529Z,20.12
2023-09-29T23:09:48.266Z,20.06
2023-09-29T23:12:15.650Z,20.18
2023-09-29T23:14:42.367Z,20.07
2023-09-29T23:17:10.444Z,20.23
2023-09-29T23:19:37.197Z,20.13
2023-09-29T23:22:03.822Z,20.34
2023-09-29T23:24:31.013Z,20.06
2023-09-29T23:26:59.439Z,20.35
2023-09-29T23:29:26.244Z,20.56
2023-09-29T23:31:52.850Z,20.35
2023-09-29T23:34:19.561Z,20.39
2023-09-29T23:36:46.172Z,20.28
2023-09-29T23:39:14.765Z,20.33
2023-09-29T23:41:41.695Z,20.49
2023-09-29T23:44:09.230Z,20.44
2023-09-29T23:46:37.362Z,20.20
2023-09-29T23:49:08.037Z,20.44
2023-09-29T23:51:34.974Z,20.07
2023-09-29T23:54:01.973Z,20.32
2023-09-29T23:56:30.015Z,20.37
2023-09-29T23:58:57.143Z,20.37
